sensor_id;sensor_type;location;lat;lon;timestamp;P1;durP1;ratioP1;P2;durP2;ratioP2
11709;SDS011;5911;51.036;6.972;2023-06-10T00:00:06;7.55;;;6.85;;
11709;SDS011;5911;51.036;6.972;2023-06-10T00:02:41;7.45;;;6.68;;
11709;SDS011;5911;51.036;6.972;2023-06-10T00:05:10;7.90;;;6.68;;
11709;SDS011;5911;51.036;6.972;2023-06-10T00:07:38;6.97;;;6.30;;
11709;SDS011;5911;51.036;6.972;2023-06-10T00:10:07;7.00;;;6.40;;
11709;SDS011;5911;51.036;6.972;2023-06-10T00:12:38;8.07;;;7.10;;
11709;SDS011;5911;51.036;6.972;2023-06-10T00:15:07;8.35;;;7.00;;
11709;SDS011;5911;51.036;6.972;2023-06-10T00:17:35;8.02;;;6.95;;
11709;SDS011;5911;51.036;6.972;2023-06-10T00:20:07;7.78;;;6.88;;
11709;SDS011;5911;51.036;6.972;2023-06-10T00:22:37;7.75;;;6.95;;
11709;SDS011;5911;51.036;6.972;2023-06-10T00:25:06;7.50;;;6.90;;
11709;SDS011;5911;51.036;6.972;2023-06-10T00:27:35;7.38;;;6.60;;
11709;SDS011;5911;51.036;6.972;2023-06-10T00:30:05;7.05;;;6.47;;
11709;SDS011;5911;51.036;6.972;2023-06-10T00:32:34;6.80;;;6.13;;
11709;SDS011;5911;51.036;6.972;2023-06-10T00:35:02;7.63;;;7.03;;
11709;SDS011;5911;51.036;6.972;2023-06-10T00:37:31;7.90;;;7.13;;
11709;SDS011;5911;51.036;6.972;2023-06-10T00:39:59;7.70;;;6.97;;
11709;SDS011;5911;51.036;6.972;2023-06-10T00:42:27;8.05;;;7.22;;
11709;SDS011;5911;51.036;6.972;2023-06-10T00:44:55;7.93;;;7.22;;
11709;SDS011;5911;51.036;6.972;2023-06-10T00:47:24;7.55;;;6.95;;
11709;SDS011;5911;51.036;6.972;2023-06-10T00:49:52;7.65;;;6.72;;
11709;SDS011;5911;51.036;6.972;2023-06-10T00:52:23;9.10;;;7.63;;
11709;SDS011;5911;51.036;6.972;2023-06-10T00:54:55;9.52;;;7.13;;
11709;SDS011;5911;51.036;6.972;2023-06-10T00:57:23;7.72;;;6.93;;
11709;SDS011;5911;51.036;6.972;2023-06-10T00:59:51;7.32;;;6.63;;
11709;SDS011;5911;51.036;6.972;2023-06-10T01:02:19;8.18;;;7.38;;
11709;SDS011;5911;51.036;6.972;2023-06-10T01:04:48;9.98;;;7.20;;
11709;SDS011;5911;51.036;6.972;2023-06-10T01:07:20;8.32;;;7.53;;
11709;SDS011;5911;51.036;6.972;2023-06-10T01:09:54;9.05;;;7.70;;
11709;SDS011;5911;51.036;6.972;2023-06-10T01:12:28;7.93;;;7.13;;
11709;SDS011;5911;51.036;6.972;2023-06-10T01:15:01;7.60;;;6.85;;
11709;SDS011;5911;51.036;6.972;2023-06-10T01:17:30;10.60;;;7.40;;
11709;SDS011;5911;51.036;6.972;2023-06-10T01:19:59;8.18;;;6.85;;
11709;SDS011;5911;51.036;6.972;2023-06-10T01:22:30;7.72;;;7.13;;
11709;SDS011;5911;51.036;6.972;2023-06-10T01:25:03;7.65;;;6.95;;
11709;SDS011;5911;51.036;6.972;2023-06-10T01:27:33;8.40;;;7.25;;
11709;SDS011;5911;51.036;6.972;2023-06-10T01:30:07;10.30;;;6.68;;
11709;SDS011;5911;51.036;6.972;2023-06-10T01:32:40;8.32;;;7.50;;
11709;SDS011;5911;51.036;6.972;2023-06-10T01:35:14;8.35;;;7.55;;
11709;SDS011;5911;51.036;6.972;2023-06-10T01:37:45;7.85;;;7.15;;
11709;SDS011;5911;51.036;6.972;2023-06-10T01:40:14;7.53;;;6.82;;
11709;SDS011;5911;51.036;6.972;2023-06-10T01:42:44;7.20;;;6.60;;
11709;SDS011;5911;51.036;6.972;2023-06-10T01:45:12;8.02;;;7.40;;
11709;SDS011;5911;51.036;6.972;2023-06-10T01:47:39;8.32;;;7.63;;
11709;SDS011;5911;51.036;6.972;2023-06-10T01:50:08;8.52;;;7.25;;
11709;SDS011;5911;51.036;6.972;2023-06-10T01:52:36;8.27;;;7.50;;
11709;SDS011;5911;51.036;6.972;2023-06-10T01:55:06;7.43;;;6.72;;
11709;SDS011;5911;51.036;6.972;2023-06-10T01:57:34;7.78;;;7.03;;
11709;SDS011;5911;51.036;6.972;2023-06-10T02:00:02;7.72;;;7.10;;
11709;SDS011;5911;51.036;6.972;2023-06-10T02:02:40;8.55;;;7.72;;
11709;SDS011;5911;51.036;6.972;2023-06-10T02:05:08;8.63;;;7.38;;
11709;SDS011;5911;51.036;6.972;2023-06-10T02:07:36;7.82;;;7.15;;
11709;SDS011;5911;51.036;6.972;2023-06-10T02:10:06;8.43;;;7.60;;
11709;SDS011;5911;51.036;6.972;2023-06-10T02:12:35;8.00;;;7.30;;
11709;SDS011;5911;51.036;6.972;2023-06-10T02:15:03;7.78;;;7.07;;
11709;SDS011;5911;51.036;6.972;2023-06-10T02:17:31;7.95;;;7.28;;
11709;SDS011;5911;51.036;6.972;2023-06-10T02:20:00;8.10;;;7.40;;
11709;SDS011;5911;51.036;6.972;2023-06-10T02:22:32;8.00;;;7.30;;
11709;SDS011;5911;51.036;6.972;2023-06-10T02:25:00;7.93;;;7.22;;
11709;SDS011;5911;51.036;6.972;2023-06-10T02:27:31;8.00;;;7.03;;
11709;SDS011;5911;51.036;6.972;2023-06-10T02:29:59;8.45;;;7.57;;
11709;SDS011;5911;51.036;6.972;2023-06-10T02:32:30;7.13;;;6.53;;
11709;SDS011;5911;51.036;6.972;2023-06-10T02:34:58;8.65;;;7.53;;
11709;SDS011;5911;51.036;6.972;2023-06-10T02:37:27;7.80;;;7.10;;
11709;SDS011;5911;51.036;6.972;2023-06-10T02:39:56;8.43;;;7.65;;
11709;SDS011;5911;51.036;6.972;2023-06-10T02:42:25;8.27;;;7.50;;
11709;SDS011;5911;51.036;6.972;2023-06-10T02:44:55;7.75;;;6.97;;
11709;SDS011;5911;51.036;6.972;2023-06-10T02:47:33;8.27;;;7.55;;
11709;SDS011;5911;51.036;6.972;2023-06-10T02:50:01;8.32;;;7.63;;
11709;SDS011;5911;51.036;6.972;2023-06-10T02:52:34;8.65;;;7.85;;
11709;SDS011;5911;51.036;6.972;2023-06-10T02:55:02;8.75;;;7.60;;
11709;SDS011;5911;51.036;6.972;2023-06-10T02:57:30;8.25;;;7.38;;
11709;SDS011;5911;51.036;6.972;2023-06-10T03:00:00;8.77;;;8.05;;
11709;SDS011;5911;51.036;6.972;2023-06-10T03:02:31;8.20;;;7.35;;
11709;SDS011;5911;51.036;6.972;2023-06-10T03:05:03;8.35;;;7.63;;
11709;SDS011;5911;51.036;6.972;2023-06-10T03:07:39;8.02;;;7.18;;
11709;SDS011;5911;51.036;6.972;2023-06-10T03:10:07;8.15;;;7.35;;
11709;SDS011;5911;51.036;6.972;2023-06-10T03:12:38;9.10;;;8.30;;
11709;SDS011;5911;51.036;6.972;2023-06-10T03:15:08;8.93;;;8.13;;
11709;SDS011;5911;51.036;6.972;2023-06-10T03:17:37;9.50;;;7.65;;
11709;SDS011;5911;51.036;6.972;2023-06-10T03:20:06;8.52;;;7.72;;
11709;SDS011;5911;51.036;6.972;2023-06-10T03:22:38;10.00;;;9.00;;
11709;SDS011;5911;51.036;6.972;2023-06-10T03:25:08;10.25;;;9.02;;
11709;SDS011;5911;51.036;6.972;2023-06-10T03:27:42;9.00;;;8.27;;
11709;SDS011;5911;51.036;6.972;2023-06-10T03:30:13;10.25;;;9.32;;
11709;SDS011;5911;51.036;6.972;2023-06-10T03:32:43;9.98;;;8.98;;
11709;SDS011;5911;51.036;6.972;2023-06-10T03:35:14;11.05;;;9.13;;
11709;SDS011;5911;51.036;6.972;2023-06-10T03:37:44;10.45;;;9.40;;
11709;SDS011;5911;51.036;6.972;2023-06-10T03:40:11;9.63;;;8.73;;
11709;SDS011;5911;51.036;6.972;2023-06-10T03:42:43;10.25;;;9.30;;
11709;SDS011;5911;51.036;6.972;2023-06-10T03:45:15;9.93;;;8.65;;
11709;SDS011;5911;51.036;6.972;2023-06-10T03:47:44;10.40;;;9.50;;
11709;SDS011;5911;51.036;6.972;2023-06-10T03:50:17;10.82;;;9.70;;
11709;SDS011;5911;51.036;6.972;2023-06-10T03:52:45;9.57;;;8.57;;
11709;SDS011;5911;51.036;6.972;2023-06-10T03:55:14;11.85;;;9.57;;
11709;SDS011;5911;51.036;6.972;2023-06-10T03:57:44;9.73;;;8.93;;
11709;SDS011;5911;51.036;6.972;2023-06-10T04:00:12;11.07;;;9.95;;
11709;SDS011;5911;51.036;6.972;2023-06-10T04:02:42;12.15;;;10.30;;
11709;SDS011;5911;51.036;6.972;2023-06-10T04:05:24;10.98;;;9.98;;
11709;SDS011;5911;51.036;6.972;2023-06-10T04:07:52;10.43;;;9.45;;
11709;SDS011;5911;51.036;6.972;2023-06-10T04:10:20;11.40;;;10.27;;
11709;SDS011;5911;51.036;6.972;2023-06-10T04:12:48;10.20;;;9.30;;
11709;SDS011;5911;51.036;6.972;2023-06-10T04:15:18;10.88;;;9.73;;
11709;SDS011;5911;51.036;6.972;2023-06-10T04:17:46;11.05;;;9.95;;
11709;SDS011;5911;51.036;6.972;2023-06-10T04:20:17;10.20;;;9.10;;
11709;SDS011;5911;51.036;6.972;2023-06-10T04:22:47;10.18;;;9.27;;
11709;SDS011;5911;51.036;6.972;2023-06-10T04:25:15;11.30;;;10.15;;
11709;SDS011;5911;51.036;6.972;2023-06-10T04:27:43;10.82;;;9.73;;
11709;SDS011;5911;51.036;6.972;2023-06-10T04:30:12;11.35;;;10.25;;
11709;SDS011;5911;51.036;6.972;2023-06-10T04:32:42;12.23;;;10.15;;
11709;SDS011;5911;51.036;6.972;2023-06-10T04:35:14;10.82;;;9.82;;
11709;SDS011;5911;51.036;6.972;2023-06-10T04:37:44;13.63;;;10.00;;
11709;SDS011;5911;51.036;6.972;2023-06-10T04:40:12;11.55;;;10.45;;
11709;SDS011;5911;51.036;6.972;2023-06-10T04:42:40;11.15;;;10.25;;
11709;SDS011;5911;51.036;6.972;2023-06-10T04:45:09;12.25;;;11.15;;
11709;SDS011;5911;51.036;6.972;2023-06-10T04:47:38;11.82;;;10.82;;
11709;SDS011;5911;51.036;6.972;2023-06-10T04:50:08;12.18;;;11.02;;
11709;SDS011;5911;51.036;6.972;2023-06-10T04:52:36;12.60;;;11.43;;
11709;SDS011;5911;51.036;6.972;2023-06-10T04:55:05;13.30;;;11.52;;
11709;SDS011;5911;51.036;6.972;2023-06-10T04:57:34;11.98;;;10.98;;
11709;SDS011;5911;51.036;6.972;2023-06-10T05:00:02;12.13;;;10.93;;
11709;SDS011;5911;51.036;6.972;2023-06-10T05:02:32;12.98;;;11.73;;
11709;SDS011;5911;51.036;6.972;2023-06-10T05:05:00;13.02;;;11.82;;
11709;SDS011;5911;51.036;6.972;2023-06-10T05:07:29;13.57;;;12.13;;
11709;SDS011;5911;51.036;6.972;2023-06-10T05:09:56;12.18;;;11.07;;
11709;SDS011;5911;51.036;6.972;2023-06-10T05:12:24;12.38;;;11.25;;
11709;SDS011;5911;51.036;6.972;2023-06-10T05:14:52;13.13;;;11.85;;
11709;SDS011;5911;51.036;6.972;2023-06-10T05:17:20;12.63;;;11.38;;
11709;SDS011;5911;51.036;6.972;2023-06-10T05:19:49;12.90;;;11.60;;
11709;SDS011;5911;51.036;6.972;2023-06-10T05:22:17;11.73;;;10.45;;
11709;SDS011;5911;51.036;6.972;2023-06-10T05:24:46;12.20;;;11.07;;
11709;SDS011;5911;51.036;6.972;2023-06-10T05:27:14;14.45;;;12.95;;
11709;SDS011;5911;51.036;6.972;2023-06-10T05:29:42;11.77;;;10.70;;
11709;SDS011;5911;51.036;6.972;2023-06-10T05:32:10;11.95;;;10.50;;
11709;SDS011;5911;51.036;6.972;2023-06-10T05:34:38;11.40;;;10.00;;
11709;SDS011;5911;51.036;6.972;2023-06-10T05:37:05;12.15;;;11.05;;
11709;SDS011;5911;51.036;6.972;2023-06-10T05:39:34;12.80;;;11.68;;
11709;SDS011;5911;51.036;6.972;2023-06-10T05:42:06;10.73;;;9.85;;
11709;SDS011;5911;51.036;6.972;2023-06-10T05:44:35;11.23;;;10.07;;
11709;SDS011;5911;51.036;6.972;2023-06-10T05:47:03;12.02;;;10.93;;
11709;SDS011;5911;51.036;6.972;2023-06-10T05:49:33;15.70;;;12.27;;
11709;SDS011;5911;51.036;6.972;2023-06-10T05:52:01;10.48;;;9.57;;
11709;SDS011;5911;51.036;6.972;2023-06-10T05:54:32;9.80;;;8.85;;
11709;SDS011;5911;51.036;6.972;2023-06-10T05:57:00;9.90;;;8.95;;
11709;SDS011;5911;51.036;6.972;2023-06-10T05:59:29;9.90;;;9.00;;
11709;SDS011;5911;51.036;6.972;2023-06-10T06:01:57;10.25;;;9.15;;
11709;SDS011;5911;51.036;6.972;2023-06-10T06:04:26;9.77;;;8.77;;
11709;SDS011;5911;51.036;6.972;2023-06-10T06:06:54;10.77;;;9.15;;
11709;SDS011;5911;51.036;6.972;2023-06-10T06:09:21;12.32;;;9.38;;
11709;SDS011;5911;51.036;6.972;2023-06-10T06:11:49;9.80;;;9.00;;
11709;SDS011;5911;51.036;6.972;2023-06-10T06:14:17;9.75;;;8.80;;
11709;SDS011;5911;51.036;6.972;2023-06-10T06:16:48;9.98;;;9.18;;
11709;SDS011;5911;51.036;6.972;2023-06-10T06:19:19;10.30;;;9.40;;
11709;SDS011;5911;51.036;6.972;2023-06-10T06:21:47;12.43;;;8.95;;
11709;SDS011;5911;51.036;6.972;2023-06-10T06:24:15;10.48;;;9.43;;
11709;SDS011;5911;51.036;6.972;2023-06-10T06:26:43;10.45;;;9.45;;
11709;SDS011;5911;51.036;6.972;2023-06-10T06:29:11;9.20;;;8.30;;
11709;SDS011;5911;51.036;6.972;2023-06-10T06:31:39;11.13;;;9.77;;
11709;SDS011;5911;51.036;6.972;2023-06-10T06:34:09;9.40;;;8.40;;
11709;SDS011;5911;51.036;6.972;2023-06-10T06:36:39;9.43;;;8.35;;
11709;SDS011;5911;51.036;6.972;2023-06-10T06:39:09;8.52;;;7.70;;
11709;SDS011;5911;51.036;6.972;2023-06-10T06:41:41;9.40;;;8.50;;
11709;SDS011;5911;51.036;6.972;2023-06-10T06:44:08;8.93;;;8.07;;
11709;SDS011;5911;51.036;6.972;2023-06-10T06:46:37;8.05;;;7.25;;
11709;SDS011;5911;51.036;6.972;2023-06-10T06:49:05;8.88;;;6.93;;
11709;SDS011;5911;51.036;6.972;2023-06-10T06:51:35;8.23;;;6.53;;
11709;SDS011;5911;51.036;6.972;2023-06-10T06:54:03;7.22;;;6.53;;
11709;SDS011;5911;51.036;6.972;2023-06-10T06:56:32;10.77;;;9.70;;
11709;SDS011;5911;51.036;6.972;2023-06-10T06:59:00;8.45;;;7.75;;
11709;SDS011;5911;51.036;6.972;2023-06-10T07:01:28;7.82;;;7.07;;
11709;SDS011;5911;51.036;6.972;2023-06-10T07:03:56;7.60;;;6.82;;
11709;SDS011;5911;51.036;6.972;2023-06-10T07:06:23;6.82;;;6.22;;
11709;SDS011;5911;51.036;6.972;2023-06-10T07:08:53;6.95;;;6.25;;
11709;SDS011;5911;51.036;6.972;2023-06-10T07:11:21;7.32;;;6.70;;
11709;SDS011;5911;51.036;6.972;2023-06-10T07:13:53;7.63;;;6.80;;
11709;SDS011;5911;51.036;6.972;2023-06-10T07:16:21;8.15;;;7.40;;
11709;SDS011;5911;51.036;6.972;2023-06-10T07:18:49;6.95;;;6.35;;
11709;SDS011;5911;51.036;6.972;2023-06-10T07:21:17;7.15;;;6.50;;
11709;SDS011;5911;51.036;6.972;2023-06-10T07:23:45;8.73;;;7.47;;
11709;SDS011;5911;51.036;6.972;2023-06-10T07:26:15;7.75;;;6.82;;
11709;SDS011;5911;51.036;6.972;2023-06-10T07:28:43;7.65;;;6.43;;
11709;SDS011;5911;51.036;6.972;2023-06-10T07:31:11;6.70;;;6.20;;
11709;SDS011;5911;51.036;6.972;2023-06-10T07:33:42;7.70;;;7.00;;
11709;SDS011;5911;51.036;6.972;2023-06-10T07:36:10;7.72;;;7.03;;
11709;SDS011;5911;51.036;6.972;2023-06-10T07:38:38;8.27;;;6.85;;
11709;SDS011;5911;51.036;6.972;2023-06-10T07:41:08;7.05;;;6.35;;
11709;SDS011;5911;51.036;6.972;2023-06-10T07:43:39;7.25;;;6.55;;
11709;SDS011;5911;51.036;6.972;2023-06-10T07:46:07;8.18;;;7.38;;
11709;SDS011;5911;51.036;6.972;2023-06-10T07:48:35;9.02;;;7.45;;
11709;SDS011;5911;51.036;6.972;2023-06-10T07:51:05;8.07;;;7.10;;
11709;SDS011;5911;51.036;6.972;2023-06-10T07:53:33;7.68;;;6.72;;
11709;SDS011;5911;51.036;6.972;2023-06-10T07:56:01;7.43;;;6.82;;
11709;SDS011;5911;51.036;6.972;2023-06-10T07:58:29;9.00;;;7.25;;
11709;SDS011;5911;51.036;6.972;2023-06-10T08:00:58;8.98;;;7.40;;
11709;SDS011;5911;51.036;6.972;2023-06-10T08:03:26;7.47;;;6.68;;
11709;SDS011;5911;51.036;6.972;2023-06-10T08:05:54;8.98;;;7.15;;
11709;SDS011;5911;51.036;6.972;2023-06-10T08:08:21;7.18;;;6.47;;
11709;SDS011;5911;51.036;6.972;2023-06-10T08:10:49;6.10;;;5.50;;
11709;SDS011;5911;51.036;6.972;2023-06-10T08:13:17;6.38;;;5.78;;
11709;SDS011;5911;51.036;6.972;2023-06-10T08:15:45;7.40;;;6.70;;
11709;SDS011;5911;51.036;6.972;2023-06-10T08:18:15;7.18;;;6.55;;
11709;SDS011;5911;51.036;6.972;2023-06-10T08:20:43;9.90;;;7.30;;
11709;SDS011;5911;51.036;6.972;2023-06-10T08:23:11;8.38;;;7.50;;
11709;SDS011;5911;51.036;6.972;2023-06-10T08:25:39;7.80;;;7.13;;
11709;SDS011;5911;51.036;6.972;2023-06-10T08:28:07;8.00;;;7.22;;
11709;SDS011;5911;51.036;6.972;2023-06-10T08:30:34;9.98;;;6.63;;
11709;SDS011;5911;51.036;6.972;2023-06-10T08:33:02;7.90;;;7.03;;
11709;SDS011;5911;51.036;6.972;2023-06-10T08:35:31;7.97;;;7.05;;
11709;SDS011;5911;51.036;6.972;2023-06-10T08:37:59;11.30;;;7.30;;
11709;SDS011;5911;51.036;6.972;2023-06-10T08:40:27;9.23;;;6.80;;
11709;SDS011;5911;51.036;6.972;2023-06-10T08:42:58;7.45;;;6.80;;
11709;SDS011;5911;51.036;6.972;2023-06-10T08:45:34;8.00;;;6.63;;
11709;SDS011;5911;51.036;6.972;2023-06-10T08:48:06;7.78;;;6.97;;
11709;SDS011;5911;51.036;6.972;2023-06-10T08:54:00;8.57;;;6.75;;
11709;SDS011;5911;51.036;6.972;2023-06-10T08:56:30;7.32;;;6.72;;
11709;SDS011;5911;51.036;6.972;2023-06-10T08:58:59;8.38;;;6.45;;
11709;SDS011;5911;51.036;6.972;2023-06-10T09:01:27;8.77;;;6.90;;
11709;SDS011;5911;51.036;6.972;2023-06-10T09:03:56;7.93;;;6.82;;
11709;SDS011;5911;51.036;6.972;2023-06-10T09:06:27;8.02;;;6.85;;
11709;SDS011;5911;51.036;6.972;2023-06-10T09:08:55;7.75;;;6.82;;
11709;SDS011;5911;51.036;6.972;2023-06-10T09:11:28;7.53;;;6.90;;
11709;SDS011;5911;51.036;6.972;2023-06-10T09:13:56;8.95;;;6.93;;
11709;SDS011;5911;51.036;6.972;2023-06-10T09:16:24;13.65;;;6.88;;
11709;SDS011;5911;51.036;6.972;2023-06-10T09:18:53;7.55;;;6.85;;
11709;SDS011;5911;51.036;6.972;2023-06-10T09:21:22;7.63;;;6.93;;
11709;SDS011;5911;51.036;6.972;2023-06-10T09:23:51;7.95;;;6.95;;
11709;SDS011;5911;51.036;6.972;2023-06-10T09:26:19;9.65;;;7.68;;
11709;SDS011;5911;51.036;6.972;2023-06-10T09:28:47;7.63;;;6.95;;
11709;SDS011;5911;51.036;6.972;2023-06-10T09:31:15;7.90;;;7.10;;
11709;SDS011;5911;51.036;6.972;2023-06-10T09:33:45;9.57;;;7.57;;
11709;SDS011;5911;51.036;6.972;2023-06-10T09:36:20;7.55;;;6.85;;
11709;SDS011;5911;51.036;6.972;2023-06-10T09:38:49;7.93;;;7.15;;
11709;SDS011;5911;51.036;6.972;2023-06-10T09:41:22;7.78;;;6.97;;
11709;SDS011;5911;51.036;6.972;2023-06-10T09:43:59;7.85;;;7.03;;
11709;SDS011;5911;51.036;6.972;2023-06-10T09:46:30;7.97;;;6.30;;
11709;SDS011;5911;51.036;6.972;2023-06-10T09:48:59;8.45;;;7.22;;
11709;SDS011;5911;51.036;6.972;2023-06-10T09:51:27;7.68;;;6.97;;
11709;SDS011;5911;51.036;6.972;2023-06-10T09:53:55;7.72;;;6.90;;
11709;SDS011;5911;51.036;6.972;2023-06-10T09:56:33;8.45;;;7.30;;
11709;SDS011;5911;51.036;6.972;2023-06-10T09:59:02;8.50;;;7.03;;
11709;SDS011;5911;51.036;6.972;2023-06-10T10:01:35;9.02;;;7.03;;
11709;SDS011;5911;51.036;6.972;2023-06-10T10:04:03;7.72;;;6.90;;
11709;SDS011;5911;51.036;6.972;2023-06-10T10:06:31;7.85;;;6.57;;
11709;SDS011;5911;51.036;6.972;2023-06-10T10:08:59;7.32;;;6.68;;
11709;SDS011;5911;51.036;6.972;2023-06-10T10:11:27;7.70;;;6.93;;
11709;SDS011;5911;51.036;6.972;2023-06-10T10:13:56;9.68;;;7.03;;
11709;SDS011;5911;51.036;6.972;2023-06-10T10:16:26;7.82;;;7.00;;
11709;SDS011;5911;51.036;6.972;2023-06-10T10:19:01;7.75;;;7.05;;
11709;SDS011;5911;51.036;6.972;2023-06-10T10:21:35;7.47;;;6.85;;
11709;SDS011;5911;51.036;6.972;2023-06-10T10:24:12;7.07;;;6.47;;
11709;SDS011;5911;51.036;6.972;2023-06-10T10:26:45;7.65;;;6.95;;
11709;SDS011;5911;51.036;6.972;2023-06-10T10:29:16;8.80;;;8.02;;
11709;SDS011;5911;51.036;6.972;2023-06-10T10:31:58;8.85;;;7.15;;
11709;SDS011;5911;51.036;6.972;2023-06-10T10:34:29;7.70;;;6.95;;
11709;SDS011;5911;51.036;6.972;2023-06-10T10:37:03;8.05;;;6.80;;
11709;SDS011;5911;51.036;6.972;2023-06-10T10:39:32;8.50;;;6.65;;
11709;SDS011;5911;51.036;6.972;2023-06-10T10:42:01;8.48;;;6.78;;
11709;SDS011;5911;51.036;6.972;2023-06-10T10:44:31;7.80;;;7.00;;
11709;SDS011;5911;51.036;6.972;2023-06-10T10:47:03;8.35;;;7.65;;
11709;SDS011;5911;51.036;6.972;2023-06-10T10:49:31;7.82;;;6.78;;
11709;SDS011;5911;51.036;6.972;2023-06-10T10:52:01;8.85;;;8.05;;
11709;SDS011;5911;51.036;6.972;2023-06-10T10:54:32;9.70;;;7.00;;
11709;SDS011;5911;51.036;6.972;2023-06-10T10:57:14;7.60;;;6.82;;
11709;SDS011;5911;51.036;6.972;2023-06-10T10:59:55;8.48;;;7.10;;
11709;SDS011;5911;51.036;6.972;2023-06-10T11:02:36;7.57;;;6.97;;
11709;SDS011;5911;51.036;6.972;2023-06-10T11:05:10;8.00;;;6.40;;
11709;SDS011;5911;51.036;6.972;2023-06-10T11:07:40;7.30;;;6.50;;
11709;SDS011;5911;51.036;6.972;2023-06-10T11:10:20;6.57;;;5.97;;
11709;SDS011;5911;51.036;6.972;2023-06-10T11:12:57;7.20;;;6.60;;
11709;SDS011;5911;51.036;6.972;2023-06-10T11:15:27;6.90;;;6.15;;
11709;SDS011;5911;51.036;6.972;2023-06-10T11:18:07;8.25;;;6.18;;
11709;SDS011;5911;51.036;6.972;2023-06-10T11:20:56;7.35;;;5.97;;
11709;SDS011;5911;51.036;6.972;2023-06-10T11:23:38;10.73;;;6.38;;
11709;SDS011;5911;51.036;6.972;2023-06-10T11:26:18;6.35;;;5.75;;
11709;SDS011;5911;51.036;6.972;2023-06-10T11:29:02;5.95;;;5.45;;
11709;SDS011;5911;51.036;6.972;2023-06-10T11:31:33;6.78;;;5.75;;
11709;SDS011;5911;51.036;6.972;2023-06-10T11:34:06;7.72;;;5.60;;
11709;SDS011;5911;51.036;6.972;2023-06-10T11:36:36;6.97;;;5.57;;
11709;SDS011;5911;51.036;6.972;2023-06-10T11:39:06;6.53;;;5.90;;
11709;SDS011;5911;51.036;6.972;2023-06-10T11:41:35;9.77;;;8.88;;
11709;SDS011;5911;51.036;6.972;2023-06-10T11:44:05;11.57;;;10.43;;
11709;SDS011;5911;51.036;6.972;2023-06-10T11:46:37;6.93;;;6.22;;
11709;SDS011;5911;51.036;6.972;2023-06-10T11:49:06;7.38;;;6.60;;
11709;SDS011;5911;51.036;6.972;2023-06-10T11:51:34;8.13;;;7.32;;
11709;SDS011;5911;51.036;6.972;2023-06-10T11:54:05;9.18;;;8.38;;
11709;SDS011;5911;51.036;6.972;2023-06-10T11:56:33;6.47;;;5.88;;
11709;SDS011;5911;51.036;6.972;2023-06-10T11:59:02;7.57;;;6.00;;
11709;SDS011;5911;51.036;6.972;2023-06-10T12:01:32;7.70;;;6.65;;
11709;SDS011;5911;51.036;6.972;2023-06-10T12:04:02;7.10;;;6.50;;
11709;SDS011;5911;51.036;6.972;2023-06-10T12:06:39;6.38;;;5.78;;
11709;SDS011;5911;51.036;6.972;2023-06-10T12:09:12;6.88;;;5.55;;
11709;SDS011;5911;51.036;6.972;2023-06-10T12:11:53;6.85;;;6.25;;
11709;SDS011;5911;51.036;6.972;2023-06-10T12:17:17;10.82;;;6.57;;
11709;SDS011;5911;51.036;6.972;2023-06-10T12:19:46;6.18;;;5.65;;
11709;SDS011;5911;51.036;6.972;2023-06-10T12:22:14;6.40;;;5.88;;
11709;SDS011;5911;51.036;6.972;2023-06-10T12:24:43;6.63;;;6.00;;
11709;SDS011;5911;51.036;6.972;2023-06-10T12:27:12;6.57;;;5.95;;
11709;SDS011;5911;51.036;6.972;2023-06-10T12:29:40;6.18;;;5.60;;
11709;SDS011;5911;51.036;6.972;2023-06-10T12:32:20;6.45;;;5.88;;
11709;SDS011;5911;51.036;6.972;2023-06-10T12:35:01;5.88;;;5.38;;
11709;SDS011;5911;51.036;6.972;2023-06-10T12:37:30;7.43;;;5.50;;
11709;SDS011;5911;51.036;6.972;2023-06-10T12:40:00;5.50;;;5.00;;
11709;SDS011;5911;51.036;6.972;2023-06-10T12:42:29;5.70;;;5.22;;
11709;SDS011;5911;51.036;6.972;2023-06-10T12:44:57;6.78;;;5.72;;
11709;SDS011;5911;51.036;6.972;2023-06-10T12:47:30;6.18;;;5.57;;
11709;SDS011;5911;51.036;6.972;2023-06-10T12:50:03;6.10;;;5.50;;
11709;SDS011;5911;51.036;6.972;2023-06-10T12:52:31;6.10;;;5.60;;
11709;SDS011;5911;51.036;6.972;2023-06-10T12:54:59;8.20;;;6.10;;
11709;SDS011;5911;51.036;6.972;2023-06-10T12:57:27;7.43;;;6.22;;
11709;SDS011;5911;51.036;6.972;2023-06-10T12:59:56;6.32;;;5.68;;
11709;SDS011;5911;51.036;6.972;2023-06-10T13:02:29;6.43;;;5.88;;
11709;SDS011;5911;51.036;6.972;2023-06-10T13:04:58;5.90;;;5.35;;
11709;SDS011;5911;51.036;6.972;2023-06-10T13:07:27;7.95;;;6.15;;
11709;SDS011;5911;51.036;6.972;2023-06-10T13:09:56;6.25;;;5.63;;
11709;SDS011;5911;51.036;6.972;2023-06-10T13:12:25;6.28;;;5.60;;
11709;SDS011;5911;51.036;6.972;2023-06-10T13:15:12;6.28;;;5.20;;
11709;SDS011;5911;51.036;6.972;2023-06-10T13:17:41;7.10;;;5.50;;
11709;SDS011;5911;51.036;6.972;2023-06-10T13:20:09;6.15;;;5.55;;
11709;SDS011;5911;51.036;6.972;2023-06-10T13:22:39;6.05;;;5.35;;
11709;SDS011;5911;51.036;6.972;2023-06-10T13:25:07;6.13;;;5.53;;
11709;SDS011;5911;51.036;6.972;2023-06-10T13:27:36;6.20;;;5.45;;
11709;SDS011;5911;51.036;6.972;2023-06-10T13:30:06;5.80;;;5.00;;
11709;SDS011;5911;51.036;6.972;2023-06-10T13:32:34;6.80;;;5.20;;
11709;SDS011;5911;51.036;6.972;2023-06-10T13:35:02;6.00;;;5.40;;
11709;SDS011;5911;51.036;6.972;2023-06-10T13:37:31;5.65;;;5.07;;
11709;SDS011;5911;51.036;6.972;2023-06-10T13:40:01;9.32;;;5.07;;
11709;SDS011;5911;51.036;6.972;2023-06-10T13:42:30;6.03;;;5.43;;
11709;SDS011;5911;51.036;6.972;2023-06-10T13:44:58;6.10;;;5.15;;
11709;SDS011;5911;51.036;6.972;2023-06-10T13:47:25;5.30;;;4.82;;
11709;SDS011;5911;51.036;6.972;2023-06-10T13:49:53;6.25;;;4.95;;
11709;SDS011;5911;51.036;6.972;2023-06-10T13:52:21;8.27;;;5.22;;
11709;SDS011;5911;51.036;6.972;2023-06-10T13:54:49;5.75;;;4.80;;
11709;SDS011;5911;51.036;6.972;2023-06-10T13:57:18;5.80;;;4.85;;
11709;SDS011;5911;51.036;6.972;2023-06-10T13:59:46;5.50;;;4.97;;
11709;SDS011;5911;51.036;6.972;2023-06-10T14:02:14;5.88;;;4.60;;
11709;SDS011;5911;51.036;6.972;2023-06-10T14:04:43;5.43;;;4.93;;
11709;SDS011;5911;51.036;6.972;2023-06-10T14:07:11;6.05;;;4.85;;
11709;SDS011;5911;51.036;6.972;2023-06-10T14:09:38;4.57;;;4.15;;
11709;SDS011;5911;51.036;6.972;2023-06-10T14:12:07;6.25;;;5.15;;
11709;SDS011;5911;51.036;6.972;2023-06-10T14:14:37;5.63;;;4.65;;
11709;SDS011;5911;51.036;6.972;2023-06-10T14:17:04;5.22;;;4.72;;
11709;SDS011;5911;51.036;6.972;2023-06-10T14:19:33;5.80;;;4.80;;
11709;SDS011;5911;51.036;6.972;2023-06-10T14:22:00;5.13;;;4.70;;
11709;SDS011;5911;51.036;6.972;2023-06-10T14:24:33;5.10;;;4.60;;
11709;SDS011;5911;51.036;6.972;2023-06-10T14:27:01;4.60;;;4.20;;
11709;SDS011;5911;51.036;6.972;2023-06-10T14:29:29;5.90;;;4.57;;
11709;SDS011;5911;51.036;6.972;2023-06-10T14:31:59;5.57;;;4.97;;
11709;SDS011;5911;51.036;6.972;2023-06-10T14:34:28;5.72;;;5.03;;
11709;SDS011;5911;51.036;6.972;2023-06-10T14:37:00;4.75;;;4.35;;
11709;SDS011;5911;51.036;6.972;2023-06-10T14:39:29;6.55;;;4.90;;
11709;SDS011;5911;51.036;6.972;2023-06-10T14:41:57;5.20;;;4.60;;
11709;SDS011;5911;51.036;6.972;2023-06-10T14:44:25;5.88;;;4.53;;
11709;SDS011;5911;51.036;6.972;2023-06-10T14:46:52;5.47;;;4.60;;
11709;SDS011;5911;51.036;6.972;2023-06-10T14:49:22;6.97;;;4.50;;
11709;SDS011;5911;51.036;6.972;2023-06-10T14:51:50;8.07;;;5.20;;
11709;SDS011;5911;51.036;6.972;2023-06-10T14:54:17;7.13;;;4.53;;
11709;SDS011;5911;51.036;6.972;2023-06-10T14:56:45;5.47;;;4.50;;
11709;SDS011;5911;51.036;6.972;2023-06-10T14:59:13;6.57;;;5.10;;
11709;SDS011;5911;51.036;6.972;2023-06-10T15:01:43;6.95;;;4.90;;
11709;SDS011;5911;51.036;6.972;2023-06-10T15:04:14;5.13;;;4.72;;
11709;SDS011;5911;51.036;6.972;2023-06-10T15:06:49;5.00;;;4.50;;
11709;SDS011;5911;51.036;6.972;2023-06-10T15:09:17;4.80;;;4.25;;
11709;SDS011;5911;51.036;6.972;2023-06-10T15:11:45;6.68;;;4.38;;
11709;SDS011;5911;51.036;6.972;2023-06-10T15:14:13;4.57;;;4.18;;
11709;SDS011;5911;51.036;6.972;2023-06-10T15:16:41;4.72;;;4.32;;
11709;SDS011;5911;51.036;6.972;2023-06-10T15:19:08;6.93;;;4.97;;